Stoneyville, Illinois
Current Conditions -  °F | °C
As of 8:15 AM on Saturday 22 Nov 2014 (Local Time) from KVYS Reporting Station
Haze Haze  
Wind Chill: 37°   Ceiling: 1100
Heat Index: 41°   Visibility: 3mi
Dew Point: 39°   Wind: 6mph
Humidity: 93%   Direction: 190°S
Pressure: 30.02"   Gusts: NA
Location:  41.4349°N, 88.8687°W
Report Text: KVYS 221415Z AUTO 19005KT 3SM BR OVC011 05/04 A3002 RMK AO2 T00500040
Loading
Personal Weather Stations






























Interactive Weather Map New forecast layout! Learn more

10-Day Weather Forecast

Advertisements
Track Severe Weather on mobile